sensor_id;sensor_type;location;lat;lon;timestamp;P1;durP1;ratioP1;P2;durP2;ratioP2
27566;SDS011;15006;48.584;9.186;2022-11-11T00:00:58;10.82;;;8.93;;
27566;SDS011;15006;48.584;9.186;2022-11-11T00:03:30;13.73;;;9.10;;
27566;SDS011;15006;48.584;9.186;2022-11-11T00:06:05;12.40;;;8.60;;
27566;SDS011;15006;48.584;9.186;2022-11-11T00:08:40;6.07;;;5.47;;
27566;SDS011;15006;48.584;9.186;2022-11-11T00:11:13;8.13;;;7.32;;
27566;SDS011;15006;48.584;9.186;2022-11-11T00:13:42;6.60;;;6.10;;
27566;SDS011;15006;48.584;9.186;2022-11-11T00:16:15;6.68;;;6.05;;
27566;SDS011;15006;48.584;9.186;2022-11-11T00:18:45;7.45;;;6.65;;
27566;SDS011;15006;48.584;9.186;2022-11-11T00:21:31;7.65;;;6.70;;
27566;SDS011;15006;48.584;9.186;2022-11-11T00:24:22;7.75;;;6.70;;
27566;SDS011;15006;48.584;9.186;2022-11-11T00:27:11;6.85;;;6.30;;
27566;SDS011;15006;48.584;9.186;2022-11-11T00:29:44;6.82;;;6.03;;
27566;SDS011;15006;48.584;9.186;2022-11-11T00:32:15;9.38;;;7.40;;
27566;SDS011;15006;48.584;9.186;2022-11-11T00:34:49;7.13;;;6.43;;
27566;SDS011;15006;48.584;9.186;2022-11-11T00:37:37;9.43;;;6.50;;
27566;SDS011;15006;48.584;9.186;2022-11-11T00:40:04;12.27;;;7.95;;
27566;SDS011;15006;48.584;9.186;2022-11-11T00:42:34;14.88;;;7.03;;
27566;SDS011;15006;48.584;9.186;2022-11-11T00:45:03;7.15;;;6.50;;
27566;SDS011;15006;48.584;9.186;2022-11-11T00:47:35;7.03;;;6.38;;
27566;SDS011;15006;48.584;9.186;2022-11-11T00:50:21;9.68;;;6.90;;
27566;SDS011;15006;48.584;9.186;2022-11-11T00:53:10;6.78;;;6.10;;
27566;SDS011;15006;48.584;9.186;2022-11-11T00:55:43;7.38;;;6.10;;
27566;SDS011;15006;48.584;9.186;2022-11-11T00:58:08;7.25;;;6.65;;
27566;SDS011;15006;48.584;9.186;2022-11-11T01:00:35;5.80;;;5.30;;
27566;SDS011;15006;48.584;9.186;2022-11-11T01:03:01;7.32;;;5.68;;
27566;SDS011;15006;48.584;9.186;2022-11-11T01:05:27;10.27;;;4.90;;
27566;SDS011;15006;48.584;9.186;2022-11-11T01:07:53;50.88;;;5.55;;
27566;SDS011;15006;48.584;9.186;2022-11-11T01:10:20;85.03;;;6.32;;
27566;SDS011;15006;48.584;9.186;2022-11-11T01:13:12;56.80;;;6.95;;
27566;SDS011;15006;48.584;9.186;2022-11-11T01:15:43;36.83;;;5.23;;
27566;SDS011;15006;48.584;9.186;2022-11-11T01:18:16;19.05;;;4.97;;
27566;SDS011;15006;48.584;9.186;2022-11-11T01:20:46;6.60;;;5.00;;
27566;SDS011;15006;48.584;9.186;2022-11-11T01:23:13;4.90;;;4.57;;
27566;SDS011;15006;48.584;9.186;2022-11-11T01:25:40;4.43;;;4.13;;
27566;SDS011;15006;48.584;9.186;2022-11-11T01:28:07;6.00;;;4.80;;
27566;SDS011;15006;48.584;9.186;2022-11-11T01:30:34;7.15;;;4.43;;
27566;SDS011;15006;48.584;9.186;2022-11-11T01:33:01;15.82;;;4.50;;
27566;SDS011;15006;48.584;9.186;2022-11-11T01:35:27;39.80;;;5.03;;
27566;SDS011;15006;48.584;9.186;2022-11-11T01:37:53;18.90;;;5.20;;
27566;SDS011;15006;48.584;9.186;2022-11-11T01:40:21;4.53;;;4.10;;
27566;SDS011;15006;48.584;9.186;2022-11-11T01:48:18;25.90;;;4.95;;
27566;SDS011;15006;48.584;9.186;2022-11-11T01:51:13;11.63;;;4.50;;
27566;SDS011;15006;48.584;9.186;2022-11-11T01:54:07;13.02;;;4.03;;
27566;SDS011;15006;48.584;9.186;2022-11-11T01:56:39;18.38;;;4.45;;
27566;SDS011;15006;48.584;9.186;2022-11-11T01:59:08;31.33;;;5.20;;
27566;SDS011;15006;48.584;9.186;2022-11-11T02:01:40;8.27;;;4.43;;
27566;SDS011;15006;48.584;9.186;2022-11-11T02:04:08;27.58;;;4.80;;
27566;SDS011;15006;48.584;9.186;2022-11-11T02:06:56;18.00;;;4.20;;
27566;SDS011;15006;48.584;9.186;2022-11-11T02:09:28;7.18;;;3.95;;
27566;SDS011;15006;48.584;9.186;2022-11-11T02:11:55;9.88;;;4.03;;
27566;SDS011;15006;48.584;9.186;2022-11-11T02:14:43;34.22;;;4.68;;
27566;SDS011;15006;48.584;9.186;2022-11-11T02:17:13;45.67;;;5.85;;
27566;SDS011;15006;48.584;9.186;2022-11-11T02:25:03;23.27;;;4.88;;
27566;SDS011;15006;48.584;9.186;2022-11-11T02:27:33;27.88;;;5.45;;
27566;SDS011;15006;48.584;9.186;2022-11-11T02:30:03;16.67;;;5.23;;
27566;SDS011;15006;48.584;9.186;2022-11-11T02:32:32;33.53;;;4.78;;
27566;SDS011;15006;48.584;9.186;2022-11-11T02:34:58;18.05;;;4.35;;
27566;SDS011;15006;48.584;9.186;2022-11-11T02:37:25;8.70;;;4.07;;
27566;SDS011;15006;48.584;9.186;2022-11-11T02:39:52;4.72;;;4.43;;
27566;SDS011;15006;48.584;9.186;2022-11-11T02:42:24;3.90;;;3.70;;
27566;SDS011;15006;48.584;9.186;2022-11-11T02:44:51;7.45;;;4.00;;
27566;SDS011;15006;48.584;9.186;2022-11-11T02:47:23;12.27;;;3.95;;
27566;SDS011;15006;48.584;9.186;2022-11-11T02:49:50;24.75;;;4.00;;
27566;SDS011;15006;48.584;9.186;2022-11-11T02:52:16;4.20;;;4.00;;
27566;SDS011;15006;48.584;9.186;2022-11-11T02:54:42;4.03;;;3.80;;
27566;SDS011;15006;48.584;9.186;2022-11-11T02:57:08;12.60;;;3.35;;
27566;SDS011;15006;48.584;9.186;2022-11-11T02:59:35;3.70;;;3.50;;
27566;SDS011;15006;48.584;9.186;2022-11-11T03:02:03;4.50;;;4.22;;
27566;SDS011;15006;48.584;9.186;2022-11-11T03:04:30;22.73;;;4.47;;
27566;SDS011;15006;48.584;9.186;2022-11-11T03:06:56;4.40;;;4.00;;
27566;SDS011;15006;48.584;9.186;2022-11-11T03:09:23;3.78;;;3.58;;
27566;SDS011;15006;48.584;9.186;2022-11-11T03:11:49;4.60;;;4.20;;
27566;SDS011;15006;48.584;9.186;2022-11-11T03:14:15;6.28;;;4.82;;
27566;SDS011;15006;48.584;9.186;2022-11-11T03:16:41;9.02;;;3.80;;
27566;SDS011;15006;48.584;9.186;2022-11-11T03:19:26;8.98;;;3.67;;
27566;SDS011;15006;48.584;9.186;2022-11-11T03:21:52;7.63;;;3.75;;
27566;SDS011;15006;48.584;9.186;2022-11-11T03:24:20;13.68;;;4.25;;
27566;SDS011;15006;48.584;9.186;2022-11-11T03:26:46;4.07;;;3.88;;
27566;SDS011;15006;48.584;9.186;2022-11-11T03:29:12;10.50;;;4.50;;
27566;SDS011;15006;48.584;9.186;2022-11-11T03:31:38;49.67;;;6.25;;
27566;SDS011;15006;48.584;9.186;2022-11-11T03:34:04;31.73;;;5.35;;
27566;SDS011;15006;48.584;9.186;2022-11-11T03:36:43;85.85;;;6.97;;
27566;SDS011;15006;48.584;9.186;2022-11-11T03:39:28;196.75;;;8.07;;
27566;SDS011;15006;48.584;9.186;2022-11-11T03:41:55;112.00;;;5.88;;
27566;SDS011;15006;48.584;9.186;2022-11-11T03:44:21;220.18;;;8.35;;
27566;SDS011;15006;48.584;9.186;2022-11-11T03:46:48;143.07;;;6.55;;
27566;SDS011;15006;48.584;9.186;2022-11-11T03:49:14;112.60;;;6.95;;
27566;SDS011;15006;48.584;9.186;2022-11-11T03:51:40;155.85;;;7.88;;
27566;SDS011;15006;48.584;9.186;2022-11-11T03:54:06;104.40;;;6.82;;
27566;SDS011;15006;48.584;9.186;2022-11-11T03:56:32;120.05;;;7.85;;
27566;SDS011;15006;48.584;9.186;2022-11-11T03:58:58;59.15;;;6.38;;
27566;SDS011;15006;48.584;9.186;2022-11-11T04:01:24;20.02;;;6.13;;
27566;SDS011;15006;48.584;9.186;2022-11-11T04:04:08;8.50;;;5.68;;
27566;SDS011;15006;48.584;9.186;2022-11-11T04:06:52;13.43;;;6.07;;
27566;SDS011;15006;48.584;9.186;2022-11-11T04:09:37;6.45;;;5.72;;
27566;SDS011;15006;48.584;9.186;2022-11-11T04:12:21;6.32;;;5.82;;
27566;SDS011;15006;48.584;9.186;2022-11-11T04:14:48;6.13;;;5.68;;
27566;SDS011;15006;48.584;9.186;2022-11-11T04:17:32;5.90;;;5.50;;
27566;SDS011;15006;48.584;9.186;2022-11-11T04:19:58;5.82;;;5.43;;
27566;SDS011;15006;48.584;9.186;2022-11-11T04:22:43;6.10;;;5.70;;
27566;SDS011;15006;48.584;9.186;2022-11-11T04:25:08;5.00;;;4.70;;
27566;SDS011;15006;48.584;9.186;2022-11-11T04:27:56;5.20;;;4.88;;
27566;SDS011;15006;48.584;9.186;2022-11-11T04:30:40;4.45;;;4.10;;
27566;SDS011;15006;48.584;9.186;2022-11-11T04:33:07;4.82;;;4.50;;
27566;SDS011;15006;48.584;9.186;2022-11-11T04:35:34;5.00;;;4.53;;
27566;SDS011;15006;48.584;9.186;2022-11-11T04:38:00;5.60;;;5.20;;
27566;SDS011;15006;48.584;9.186;2022-11-11T04:40:44;5.25;;;4.85;;
27566;SDS011;15006;48.584;9.186;2022-11-11T04:43:29;4.65;;;4.45;;
27566;SDS011;15006;48.584;9.186;2022-11-11T04:45:59;5.47;;;4.72;;
27566;SDS011;15006;48.584;9.186;2022-11-11T04:48:26;4.88;;;4.57;;
27566;SDS011;15006;48.584;9.186;2022-11-11T04:50:52;5.03;;;4.72;;
27566;SDS011;15006;48.584;9.186;2022-11-11T04:53:18;5.30;;;4.90;;
27566;SDS011;15006;48.584;9.186;2022-11-11T04:55:44;5.90;;;5.50;;
27566;SDS011;15006;48.584;9.186;2022-11-11T04:58:30;5.40;;;5.10;;
27566;SDS011;15006;48.584;9.186;2022-11-11T05:00:59;6.00;;;5.50;;
27566;SDS011;15006;48.584;9.186;2022-11-11T05:03:26;4.90;;;4.60;;
27566;SDS011;15006;48.584;9.186;2022-11-11T05:05:59;5.05;;;4.75;;
27566;SDS011;15006;48.584;9.186;2022-11-11T05:08:45;4.28;;;3.97;;
27566;SDS011;15006;48.584;9.186;2022-11-11T05:11:29;9.45;;;4.10;;
27566;SDS011;15006;48.584;9.186;2022-11-11T05:13:58;13.00;;;4.93;;
27566;SDS011;15006;48.584;9.186;2022-11-11T05:16:50;11.00;;;4.28;;
27566;SDS011;15006;48.584;9.186;2022-11-11T05:19:40;5.65;;;5.25;;
27566;SDS011;15006;48.584;9.186;2022-11-11T05:22:29;5.70;;;4.43;;
27566;SDS011;15006;48.584;9.186;2022-11-11T05:25:01;5.57;;;5.10;;
27566;SDS011;15006;48.584;9.186;2022-11-11T05:27:46;71.70;;;6.22;;
27566;SDS011;15006;48.584;9.186;2022-11-11T05:30:13;150.07;;;7.13;;
27566;SDS011;15006;48.584;9.186;2022-11-11T05:32:41;175.00;;;7.43;;
27566;SDS011;15006;48.584;9.186;2022-11-11T05:35:08;103.93;;;7.60;;
27566;SDS011;15006;48.584;9.186;2022-11-11T05:37:36;147.68;;;8.50;;
27566;SDS011;15006;48.584;9.186;2022-11-11T05:40:03;174.23;;;7.97;;
27566;SDS011;15006;48.584;9.186;2022-11-11T05:42:30;174.10;;;8.70;;
27566;SDS011;15006;48.584;9.186;2022-11-11T05:44:56;44.17;;;4.95;;
27566;SDS011;15006;48.584;9.186;2022-11-11T05:47:22;91.07;;;6.20;;
27566;SDS011;15006;48.584;9.186;2022-11-11T05:49:48;82.07;;;6.78;;
27566;SDS011;15006;48.584;9.186;2022-11-11T05:52:15;53.67;;;5.30;;
27566;SDS011;15006;48.584;9.186;2022-11-11T05:54:42;48.28;;;5.25;;
27566;SDS011;15006;48.584;9.186;2022-11-11T05:57:08;76.60;;;6.05;;
27566;SDS011;15006;48.584;9.186;2022-11-11T05:59:35;72.85;;;5.57;;
27566;SDS011;15006;48.584;9.186;2022-11-11T06:02:01;19.08;;;4.43;;
27566;SDS011;15006;48.584;9.186;2022-11-11T06:04:27;13.63;;;4.55;;
27566;SDS011;15006;48.584;9.186;2022-11-11T06:06:53;38.90;;;4.45;;
27566;SDS011;15006;48.584;9.186;2022-11-11T06:09:19;15.90;;;4.57;;
27566;SDS011;15006;48.584;9.186;2022-11-11T06:11:46;46.80;;;5.95;;
27566;SDS011;15006;48.584;9.186;2022-11-11T06:14:12;50.55;;;6.22;;
27566;SDS011;15006;48.584;9.186;2022-11-11T06:16:38;12.90;;;5.28;;
27566;SDS011;15006;48.584;9.186;2022-11-11T06:19:04;10.35;;;5.30;;
27566;SDS011;15006;48.584;9.186;2022-11-11T06:21:30;11.65;;;5.45;;
27566;SDS011;15006;48.584;9.186;2022-11-11T06:24:16;5.85;;;5.47;;
27566;SDS011;15006;48.584;9.186;2022-11-11T06:26:42;19.63;;;6.88;;
27566;SDS011;15006;48.584;9.186;2022-11-11T06:29:08;13.70;;;6.70;;
27566;SDS011;15006;48.584;9.186;2022-11-11T06:31:34;113.30;;;8.75;;
27566;SDS011;15006;48.584;9.186;2022-11-11T06:34:00;134.57;;;7.93;;
27566;SDS011;15006;48.584;9.186;2022-11-11T06:36:26;162.98;;;9.63;;
27566;SDS011;15006;48.584;9.186;2022-11-11T06:38:52;108.15;;;7.22;;
27566;SDS011;15006;48.584;9.186;2022-11-11T06:41:19;133.18;;;7.85;;
27566;SDS011;15006;48.584;9.186;2022-11-11T06:43:48;140.50;;;8.75;;
27566;SDS011;15006;48.584;9.186;2022-11-11T06:46:24;204.80;;;19.77;;
27566;SDS011;15006;48.584;9.186;2022-11-11T06:48:51;136.48;;;10.55;;
27566;SDS011;15006;48.584;9.186;2022-11-11T06:51:17;147.88;;;9.07;;
27566;SDS011;15006;48.584;9.186;2022-11-11T06:53:43;103.32;;;11.20;;
27566;SDS011;15006;48.584;9.186;2022-11-11T06:56:10;99.80;;;10.57;;
27566;SDS011;15006;48.584;9.186;2022-11-11T06:58:38;108.38;;;13.60;;
27566;SDS011;15006;48.584;9.186;2022-11-11T07:01:05;99.28;;;14.32;;
27566;SDS011;15006;48.584;9.186;2022-11-11T07:03:33;68.32;;;12.25;;
27566;SDS011;15006;48.584;9.186;2022-11-11T07:06:00;44.35;;;12.77;;
27566;SDS011;15006;48.584;9.186;2022-11-11T07:08:28;19.40;;;10.57;;
27566;SDS011;15006;48.584;9.186;2022-11-11T07:10:54;35.85;;;8.43;;
27566;SDS011;15006;48.584;9.186;2022-11-11T07:13:20;15.38;;;6.95;;
27566;SDS011;15006;48.584;9.186;2022-11-11T07:15:46;9.48;;;7.32;;
27566;SDS011;15006;48.584;9.186;2022-11-11T07:18:12;7.60;;;6.85;;
27566;SDS011;15006;48.584;9.186;2022-11-11T07:20:39;12.38;;;8.20;;
27566;SDS011;15006;48.584;9.186;2022-11-11T07:23:06;9.98;;;7.25;;
27566;SDS011;15006;48.584;9.186;2022-11-11T07:25:32;7.80;;;7.20;;
27566;SDS011;15006;48.584;9.186;2022-11-11T07:27:58;8.13;;;7.32;;
27566;SDS011;15006;48.584;9.186;2022-11-11T07:30:24;7.43;;;6.88;;
27566;SDS011;15006;48.584;9.186;2022-11-11T07:32:51;11.77;;;7.55;;
27566;SDS011;15006;48.584;9.186;2022-11-11T07:35:18;7.70;;;6.95;;
27566;SDS011;15006;48.584;9.186;2022-11-11T07:37:45;7.50;;;7.00;;
27566;SDS011;15006;48.584;9.186;2022-11-11T07:40:13;6.72;;;6.25;;
27566;SDS011;15006;48.584;9.186;2022-11-11T07:42:41;7.87;;;6.43;;
27566;SDS011;15006;48.584;9.186;2022-11-11T07:45:08;7.13;;;6.53;;
27566;SDS011;15006;48.584;9.186;2022-11-11T07:47:36;7.28;;;6.68;;
27566;SDS011;15006;48.584;9.186;2022-11-11T07:50:03;6.78;;;6.18;;
27566;SDS011;15006;48.584;9.186;2022-11-11T07:52:32;6.60;;;6.05;;
27566;SDS011;15006;48.584;9.186;2022-11-11T07:54:58;5.40;;;5.10;;
27566;SDS011;15006;48.584;9.186;2022-11-11T07:57:24;5.40;;;5.10;;
27566;SDS011;15006;48.584;9.186;2022-11-11T07:59:50;6.25;;;5.72;;
27566;SDS011;15006;48.584;9.186;2022-11-11T08:02:16;5.45;;;5.10;;
27566;SDS011;15006;48.584;9.186;2022-11-11T08:04:42;5.50;;;5.20;;
27566;SDS011;15006;48.584;9.186;2022-11-11T08:07:08;5.05;;;4.75;;
27566;SDS011;15006;48.584;9.186;2022-11-11T08:09:34;5.75;;;5.35;;
27566;SDS011;15006;48.584;9.186;2022-11-11T08:12:01;5.85;;;5.45;;
27566;SDS011;15006;48.584;9.186;2022-11-11T08:14:45;5.78;;;5.38;;
27566;SDS011;15006;48.584;9.186;2022-11-11T08:17:11;6.28;;;5.45;;
27566;SDS011;15006;48.584;9.186;2022-11-11T08:19:37;5.78;;;5.47;;
27566;SDS011;15006;48.584;9.186;2022-11-11T08:22:03;7.05;;;5.38;;
27566;SDS011;15006;48.584;9.186;2022-11-11T08:24:30;6.00;;;5.35;;
27566;SDS011;15006;48.584;9.186;2022-11-11T08:26:56;7.28;;;5.97;;
27566;SDS011;15006;48.584;9.186;2022-11-11T08:29:22;6.45;;;5.95;;
27566;SDS011;15006;48.584;9.186;2022-11-11T08:31:50;8.20;;;5.70;;
27566;SDS011;15006;48.584;9.186;2022-11-11T08:34:17;5.85;;;5.45;;
27566;SDS011;15006;48.584;9.186;2022-11-11T08:36:43;7.65;;;5.93;;
27566;SDS011;15006;48.584;9.186;2022-11-11T08:39:09;6.50;;;5.80;;
27566;SDS011;15006;48.584;9.186;2022-11-11T08:41:36;7.07;;;5.82;;
27566;SDS011;15006;48.584;9.186;2022-11-11T08:44:02;7.47;;;6.82;;
27566;SDS011;15006;48.584;9.186;2022-11-11T08:46:29;6.82;;;6.32;;
27566;SDS011;15006;48.584;9.186;2022-11-11T08:48:56;7.93;;;7.20;;
27566;SDS011;15006;48.584;9.186;2022-11-11T08:51:22;6.90;;;6.38;;
27566;SDS011;15006;48.584;9.186;2022-11-11T08:53:48;6.63;;;6.20;;
27566;SDS011;15006;48.584;9.186;2022-11-11T08:56:14;7.07;;;6.57;;
27566;SDS011;15006;48.584;9.186;2022-11-11T08:58:40;6.50;;;6.07;;
27566;SDS011;15006;48.584;9.186;2022-11-11T09:01:10;8.32;;;6.88;;
27566;SDS011;15006;48.584;9.186;2022-11-11T09:03:40;6.30;;;5.90;;
27566;SDS011;15006;48.584;9.186;2022-11-11T09:06:08;6.22;;;5.68;;
27566;SDS011;15006;48.584;9.186;2022-11-11T09:08:40;5.80;;;5.38;;
27566;SDS011;15006;48.584;9.186;2022-11-11T09:11:07;5.63;;;5.13;;
27566;SDS011;15006;48.584;9.186;2022-11-11T09:13:33;5.57;;;5.07;;
27566;SDS011;15006;48.584;9.186;2022-11-11T09:15:59;5.18;;;4.65;;
27566;SDS011;15006;48.584;9.186;2022-11-11T09:18:26;5.20;;;4.80;;
27566;SDS011;15006;48.584;9.186;2022-11-11T09:20:52;5.75;;;5.35;;
27566;SDS011;15006;48.584;9.186;2022-11-11T09:23:18;5.45;;;4.95;;
27566;SDS011;15006;48.584;9.186;2022-11-11T09:25:44;5.25;;;4.95;;
27566;SDS011;15006;48.584;9.186;2022-11-11T09:28:10;9.30;;;4.78;;
27566;SDS011;15006;48.584;9.186;2022-11-11T09:30:36;5.13;;;4.72;;
27566;SDS011;15006;48.584;9.186;2022-11-11T09:33:02;5.57;;;5.25;;
27566;SDS011;15006;48.584;9.186;2022-11-11T09:35:29;5.40;;;5.00;;
27566;SDS011;15006;48.584;9.186;2022-11-11T09:37:58;5.85;;;5.10;;
27566;SDS011;15006;48.584;9.186;2022-11-11T09:40:28;7.03;;;6.20;;
27566;SDS011;15006;48.584;9.186;2022-11-11T09:51:29;5.95;;;5.45;;
27566;SDS011;15006;48.584;9.186;2022-11-11T09:54:05;5.20;;;4.78;;
27566;SDS011;15006;48.584;9.186;2022-11-11T09:56:38;5.05;;;4.32;;
27566;SDS011;15006;48.584;9.186;2022-11-11T09:59:14;5.32;;;4.93;;
27566;SDS011;15006;48.584;9.186;2022-11-11T10:01:45;5.20;;;4.72;;
27566;SDS011;15006;48.584;9.186;2022-11-11T10:06:50;4.28;;;3.97;;
27566;SDS011;15006;48.584;9.186;2022-11-11T10:09:26;4.65;;;4.28;;
27566;SDS011;15006;48.584;9.186;2022-11-11T10:14:36;4.50;;;4.20;;
27566;SDS011;15006;48.584;9.186;2022-11-11T10:22:36;4.32;;;4.10;;
27566;SDS011;15006;48.584;9.186;2022-11-11T10:25:06;4.68;;;4.25;;
27566;SDS011;15006;48.584;9.186;2022-11-11T10:27:36;4.65;;;4.10;;
27566;SDS011;15006;48.584;9.186;2022-11-11T10:32:44;4.60;;;4.20;;
27566;SDS011;15006;48.584;9.186;2022-11-11T10:35:34;4.07;;;3.65;;
27566;SDS011;15006;48.584;9.186;2022-11-11T10:40:36;7.50;;;3.17;;
27566;SDS011;15006;48.584;9.186;2022-11-11T10:43:18;3.75;;;3.10;;
27566;SDS011;15006;48.584;9.186;2022-11-11T10:48:25;3.30;;;2.63;;
27566;SDS011;15006;48.584;9.186;2022-11-11T10:51:04;2.63;;;2.42;;
27566;SDS011;15006;48.584;9.186;2022-11-11T10:56:34;2.30;;;2.10;;
27566;SDS011;15006;48.584;9.186;2022-11-11T10:59:23;7.13;;;2.75;;
27566;SDS011;15006;48.584;9.186;2022-11-11T11:01:58;2.28;;;2.08;;
27566;SDS011;15006;48.584;9.186;2022-11-11T11:04:34;4.30;;;2.10;;
27566;SDS011;15006;48.584;9.186;2022-11-11T11:07:15;2.15;;;2.05;;
27566;SDS011;15006;48.584;9.186;2022-11-11T11:09:52;2.47;;;1.77;;
27566;SDS011;15006;48.584;9.186;2022-11-11T11:15:07;1.70;;;1.60;;
27566;SDS011;15006;48.584;9.186;2022-11-11T11:20:31;2.17;;;1.80;;
27566;SDS011;15006;48.584;9.186;2022-11-11T11:22:57;1.80;;;1.70;;
27566;SDS011;15006;48.584;9.186;2022-11-11T11:25:26;2.35;;;2.15;;
27566;SDS011;15006;48.584;9.186;2022-11-11T11:28:18;2.17;;;1.85;;
27566;SDS011;15006;48.584;9.186;2022-11-11T11:30:56;1.98;;;1.88;;
27566;SDS011;15006;48.584;9.186;2022-11-11T11:33:25;5.70;;;2.20;;
27566;SDS011;15006;48.584;9.186;2022-11-11T11:35:51;1.92;;;1.83;;
27566;SDS011;15006;48.584;9.186;2022-11-11T11:38:17;2.33;;;2.08;;
27566;SDS011;15006;48.584;9.186;2022-11-11T11:43:36;2.50;;;1.90;;
27566;SDS011;15006;48.584;9.186;2022-11-11T11:52:28;2.35;;;2.15;;
27566;SDS011;15006;48.584;9.186;2022-11-11T11:55:32;2.67;;;2.45;;
27566;SDS011;15006;48.584;9.186;2022-11-11T11:58:51;2.20;;;2.00;;
27566;SDS011;15006;48.584;9.186;2022-11-11T12:13:07;3.70;;;2.75;;
27566;SDS011;15006;48.584;9.186;2022-11-11T12:25:01;5.30;;;2.42;;
27566;SDS011;15006;48.584;9.186;2022-11-11T12:36:22;3.63;;;1.80;;
27566;SDS011;15006;48.584;9.186;2022-11-11T12:45:14;2.25;;;2.05;;
27566;SDS011;15006;48.584;9.186;2022-11-11T12:48:04;3.05;;;2.00;;
27566;SDS011;15006;48.584;9.186;2022-11-11T13:02:28;2.20;;;2.10;;
27566;SDS011;15006;48.584;9.186;2022-11-11T13:05:23;2.35;;;1.85;;
27566;SDS011;15006;48.584;9.186;2022-11-11T13:16:18;2.30;;;2.20;;
27566;SDS011;15006;48.584;9.186;2022-11-11T13:18:56;2.13;;;1.92;;
27566;SDS011;15006;48.584;9.186;2022-11-11T13:24:23;2.20;;;2.00;;
27566;SDS011;15006;48.584;9.186;2022-11-11T13:26:57;2.13;;;1.92;;
27566;SDS011;15006;48.584;9.186;2022-11-11T13:32:39;2.70;;;2.50;;
27566;SDS011;15006;48.584;9.186;2022-11-11T13:35:19;2.05;;;1.95;;
27566;SDS011;15006;48.584;9.186;2022-11-11T13:38:11;2.78;;;2.58;;
27566;SDS011;15006;48.584;9.186;2022-11-11T13:40:50;2.40;;;2.20;;
27566;SDS011;15006;48.584;9.186;2022-11-11T13:43:21;2.15;;;1.90;;
27566;SDS011;15006;48.584;9.186;2022-11-11T13:45:51;2.83;;;2.30;;
27566;SDS011;15006;48.584;9.186;2022-11-11T13:48:21;1.95;;;1.85;;
27566;SDS011;15006;48.584;9.186;2022-11-11T13:53:58;2.28;;;2.08;;
27566;SDS011;15006;48.584;9.186;2022-11-11T13:59:02;1.98;;;1.80;;
27566;SDS011;15006;48.584;9.186;2022-11-11T14:01:32;2.67;;;1.75;;
27566;SDS011;15006;48.584;9.186;2022-11-11T14:04:02;2.15;;;1.88;;
27566;SDS011;15006;48.584;9.186;2022-11-11T14:12:34;1.70;;;1.60;;
27566;SDS011;15006;48.584;9.186;2022-11-11T14:18:53;1.50;;;1.40;;
27566;SDS011;15006;48.584;9.186;2022-11-11T14:21:01;1.40;;;1.30;;
27566;SDS011;15006;48.584;9.186;2022-11-11T14:23:31;1.77;;;1.25;;
27566;SDS011;15006;48.584;9.186;2022-11-11T14:39:21;1.08;;;0.88;;
27566;SDS011;15006;48.584;9.186;2022-11-11T14:42:02;0.95;;;0.95;;
27566;SDS011;15006;48.584;9.186;2022-11-11T14:58:10;1.20;;;0.90;;
27566;SDS011;15006;48.584;9.186;2022-11-11T15:00:44;1.88;;;0.90;;
27566;SDS011;15006;48.584;9.186;2022-11-11T15:05:59;2.00;;;1.20;;
27566;SDS011;15006;48.584;9.186;2022-11-11T15:17:35;1.30;;;1.20;;
27566;SDS011;15006;48.584;9.186;2022-11-11T15:23:26;1.27;;;1.23;;
27566;SDS011;15006;48.584;9.186;2022-11-11T15:26:17;2.03;;;1.40;;
27566;SDS011;15006;48.584;9.186;2022-11-11T15:34:05;1.58;;;1.38;;
27566;SDS011;15006;48.584;9.186;2022-11-11T15:37:10;1.73;;;1.58;;
27566;SDS011;15006;48.584;9.186;2022-11-11T15:39:41;1.80;;;1.70;;
27566;SDS011;15006;48.584;9.186;2022-11-11T15:42:18;1.80;;;1.70;;
27566;SDS011;15006;48.584;9.186;2022-11-11T15:44:53;1.70;;;1.60;;
27566;SDS011;15006;48.584;9.186;2022-11-11T15:47:22;1.83;;;1.73;;
27566;SDS011;15006;48.584;9.186;2022-11-11T15:49:49;1.73;;;1.63;;
27566;SDS011;15006;48.584;9.186;2022-11-11T15:52:34;1.90;;;1.80;;
27566;SDS011;15006;48.584;9.186;2022-11-11T15:55:01;1.77;;;1.52;;
27566;SDS011;15006;48.584;9.186;2022-11-11T15:57:46;1.88;;;1.77;;
27566;SDS011;15006;48.584;9.186;2022-11-11T16:00:45;2.10;;;2.00;;
27566;SDS011;15006;48.584;9.186;2022-11-11T16:03:09;2.50;;;2.30;;
27566;SDS011;15006;48.584;9.186;2022-11-11T16:05:47;2.38;;;2.28;;
27566;SDS011;15006;48.584;9.186;2022-11-11T16:08:17;2.80;;;2.60;;
27566;SDS011;15006;48.584;9.186;2022-11-11T16:10:45;3.00;;;2.75;;
27566;SDS011;15006;48.584;9.186;2022-11-11T16:13:19;4.63;;;3.25;;
27566;SDS011;15006;48.584;9.186;2022-11-11T16:16:10;7.68;;;4.05;;
27566;SDS011;15006;48.584;9.186;2022-11-11T16:18:55;6.72;;;4.47;;
27566;SDS011;15006;48.584;9.186;2022-11-11T16:21:59;4.72;;;4.38;;
27566;SDS011;15006;48.584;9.186;2022-11-11T16:24:41;6.63;;;4.55;;
27566;SDS011;15006;48.584;9.186;2022-11-11T16:27:11;8.65;;;4.95;;
27566;SDS011;15006;48.584;9.186;2022-11-11T16:29:43;6.03;;;4.88;;
27566;SDS011;15006;48.584;9.186;2022-11-11T16:34:47;6.75;;;5.22;;
27566;SDS011;15006;48.584;9.186;2022-11-11T16:37:15;9.88;;;4.63;;
27566;SDS011;15006;48.584;9.186;2022-11-11T16:39:43;4.53;;;4.13;;
27566;SDS011;15006;48.584;9.186;2022-11-11T16:50:06;5.07;;;4.65;;
27566;SDS011;15006;48.584;9.186;2022-11-11T16:52:39;6.68;;;6.18;;
27566;SDS011;15006;48.584;9.186;2022-11-11T16:58:09;10.45;;;9.27;;
27566;SDS011;15006;48.584;9.186;2022-11-11T17:00:45;10.32;;;8.13;;
27566;SDS011;15006;48.584;9.186;2022-11-11T17:03:16;8.77;;;7.88;;
27566;SDS011;15006;48.584;9.186;2022-11-11T17:08:31;21.58;;;14.98;;
27566;SDS011;15006;48.584;9.186;2022-11-11T17:14:04;13.57;;;10.50;;
27566;SDS011;15006;48.584;9.186;2022-11-11T17:16:30;21.95;;;13.88;;
27566;SDS011;15006;48.584;9.186;2022-11-11T17:19:00;17.77;;;12.60;;
27566;SDS011;15006;48.584;9.186;2022-11-11T17:21:28;15.40;;;11.55;;
27566;SDS011;15006;48.584;9.186;2022-11-11T17:23:54;15.85;;;9.68;;
27566;SDS011;15006;48.584;9.186;2022-11-11T17:26:20;18.42;;;10.63;;
27566;SDS011;15006;48.584;9.186;2022-11-11T17:28:46;13.55;;;10.18;;
27566;SDS011;15006;48.584;9.186;2022-11-11T17:31:12;11.57;;;9.25;;
27566;SDS011;15006;48.584;9.186;2022-11-11T17:33:38;8.15;;;7.35;;
27566;SDS011;15006;48.584;9.186;2022-11-11T17:36:04;8.98;;;8.07;;
27566;SDS011;15006;48.584;9.186;2022-11-11T17:38:34;7.90;;;7.20;;
27566;SDS011;15006;48.584;9.186;2022-11-11T17:41:01;7.55;;;6.78;;
27566;SDS011;15006;48.584;9.186;2022-11-11T17:43:28;8.48;;;6.43;;
27566;SDS011;15006;48.584;9.186;2022-11-11T17:45:55;10.25;;;6.22;;
27566;SDS011;15006;48.584;9.186;2022-11-11T17:48:25;9.07;;;6.72;;
27566;SDS011;15006;48.584;9.186;2022-11-11T17:50:51;5.90;;;5.40;;
27566;SDS011;15006;48.584;9.186;2022-11-11T17:53:17;5.07;;;4.65;;
27566;SDS011;15006;48.584;9.186;2022-11-11T17:55:43;7.45;;;4.60;;
27566;SDS011;15006;48.584;9.186;2022-11-11T17:58:09;4.72;;;4.45;;
27566;SDS011;15006;48.584;9.186;2022-11-11T18:00:37;4.40;;;4.15;;
27566;SDS011;15006;48.584;9.186;2022-11-11T18:03:05;4.03;;;3.80;;
27566;SDS011;15006;48.584;9.186;2022-11-11T18:05:35;5.38;;;4.88;;
27566;SDS011;15006;48.584;9.186;2022-11-11T18:08:01;5.97;;;5.43;;
27566;SDS011;15006;48.584;9.186;2022-11-11T18:10:28;6.28;;;5.68;;
27566;SDS011;15006;48.584;9.186;2022-11-11T18:12:57;13.43;;;9.20;;
27566;SDS011;15006;48.584;9.186;2022-11-11T18:15:23;16.30;;;9.23;;
27566;SDS011;15006;48.584;9.186;2022-11-11T18:17:49;10.77;;;8.52;;
27566;SDS011;15006;48.584;9.186;2022-11-11T18:20:15;10.70;;;9.60;;
27566;SDS011;15006;48.584;9.186;2022-11-11T18:22:41;14.40;;;9.60;;
27566;SDS011;15006;48.584;9.186;2022-11-11T18:25:07;12.13;;;10.05;;
27566;SDS011;15006;48.584;9.186;2022-11-11T18:27:33;9.35;;;8.50;;